sensor_id;sensor_type;location;lat;lon;timestamp;temperature;humidity
72277;SHT30;61204;49.980;8.358;2022-08-21T00:00:23;17.78;64.44
72277;SHT30;61204;49.980;8.358;2022-08-21T00:03:11;17.68;64.44
72277;SHT30;61204;49.980;8.358;2022-08-21T00:05:47;17.65;64.65
72277;SHT30;61204;49.980;8.358;2022-08-21T00:08:16;17.66;64.79
72277;SHT30;61204;49.980;8.358;2022-08-21T00:10:44;17.56;64.77
72277;SHT30;61204;49.980;8.358;2022-08-21T00:13:11;17.58;65.06
72277;SHT30;61204;49.980;8.358;2022-08-21T00:15:39;17.55;65.28
72277;SHT30;61204;49.980;8.358;2022-08-21T00:18:08;17.55;65.31
72277;SHT30;61204;49.980;8.358;2022-08-21T00:20:38;17.52;65.39
72277;SHT30;61204;49.980;8.358;2022-08-21T00:23:05;17.45;66.12
72277;SHT30;61204;49.980;8.358;2022-08-21T00:25:31;17.39;66.04
72277;SHT30;61204;49.980;8.358;2022-08-21T00:27:57;17.35;66.13
72277;SHT30;61204;49.980;8.358;2022-08-21T00:30:25;17.36;66.33
72277;SHT30;61204;49.980;8.358;2022-08-21T00:32:54;17.44;65.97
72277;SHT30;61204;49.980;8.358;2022-08-21T00:35:38;17.39;66.70
72277;SHT30;61204;49.980;8.358;2022-08-21T00:38:07;17.41;67.81
72277;SHT30;61204;49.980;8.358;2022-08-21T00:40:46;17.72;67.40
72277;SHT30;61204;49.980;8.358;2022-08-21T00:43:19;17.85;67.01
72277;SHT30;61204;49.980;8.358;2022-08-21T00:45:48;17.68;67.32
72277;SHT30;61204;49.980;8.358;2022-08-21T00:48:15;17.61;67.50
72277;SHT30;61204;49.980;8.358;2022-08-21T00:51:05;17.55;67.86
72277;SHT30;61204;49.980;8.358;2022-08-21T00:53:38;17.42;68.58
72277;SHT30;61204;49.980;8.358;2022-08-21T00:56:20;17.38;68.65
72277;SHT30;61204;49.980;8.358;2022-08-21T00:58:51;17.32;68.90
72277;SHT30;61204;49.980;8.358;2022-08-21T01:01:19;17.21;69.20
72277;SHT30;61204;49.980;8.358;2022-08-21T01:03:46;17.13;69.46
72277;SHT30;61204;49.980;8.358;2022-08-21T01:06:13;17.04;69.86
72277;SHT30;61204;49.980;8.358;2022-08-21T01:08:38;16.96;70.14
72277;SHT30;61204;49.980;8.358;2022-08-21T01:11:05;16.86;70.84
72277;SHT30;61204;49.980;8.358;2022-08-21T01:13:36;16.84;70.51
72277;SHT30;61204;49.980;8.358;2022-08-21T01:16:08;16.83;69.72
72277;SHT30;61204;49.980;8.358;2022-08-21T01:18:35;16.79;69.03
72277;SHT30;61204;49.980;8.358;2022-08-21T01:21:17;16.89;68.46
72277;SHT30;61204;49.980;8.358;2022-08-21T01:23:52;17.10;67.32
72277;SHT30;61204;49.980;8.358;2022-08-21T01:26:25;17.03;67.71
72277;SHT30;61204;49.980;8.358;2022-08-21T01:31:29;16.99;67.48
72277;SHT30;61204;49.980;8.358;2022-08-21T01:33:57;16.96;67.52
72277;SHT30;61204;49.980;8.358;2022-08-21T01:36:24;16.84;68.20
72277;SHT30;61204;49.980;8.358;2022-08-21T01:38:51;16.79;68.04
72277;SHT30;61204;49.980;8.358;2022-08-21T01:41:16;16.71;68.35
72277;SHT30;61204;49.980;8.358;2022-08-21T01:43:43;16.66;68.75
72277;SHT30;61204;49.980;8.358;2022-08-21T01:46:11;16.61;69.41
72277;SHT30;61204;49.980;8.358;2022-08-21T01:48:37;16.54;69.12
72277;SHT30;61204;49.980;8.358;2022-08-21T01:51:05;16.42;69.71
72277;SHT30;61204;49.980;8.358;2022-08-21T01:53:32;16.37;70.10
72277;SHT30;61204;49.980;8.358;2022-08-21T01:56:04;16.32;70.49
72277;SHT30;61204;49.980;8.358;2022-08-21T01:58:32;16.25;70.78
72277;SHT30;61204;49.980;8.358;2022-08-21T02:01:00;16.21;71.00
72277;SHT30;61204;49.980;8.358;2022-08-21T02:03:28;16.17;71.34
72277;SHT30;61204;49.980;8.358;2022-08-21T02:05:55;16.14;71.67
72277;SHT30;61204;49.980;8.358;2022-08-21T02:08:22;16.18;71.83
72277;SHT30;61204;49.980;8.358;2022-08-21T02:10:50;16.11;72.10
72277;SHT30;61204;49.980;8.358;2022-08-21T02:13:18;16.10;72.12
72277;SHT30;61204;49.980;8.358;2022-08-21T02:15:44;16.03;72.65
72277;SHT30;61204;49.980;8.358;2022-08-21T02:18:10;15.97;72.59
72277;SHT30;61204;49.980;8.358;2022-08-21T02:20:42;15.96;72.52
72277;SHT30;61204;49.980;8.358;2022-08-21T02:23:11;15.97;72.67
72277;SHT30;61204;49.980;8.358;2022-08-21T02:25:38;15.94;72.65
72277;SHT30;61204;49.980;8.358;2022-08-21T02:28:13;15.87;72.89
72277;SHT30;61204;49.980;8.358;2022-08-21T02:30:47;15.79;72.98
72277;SHT30;61204;49.980;8.358;2022-08-21T02:33:14;15.74;73.25
72277;SHT30;61204;49.980;8.358;2022-08-21T02:35:42;15.72;73.27
72277;SHT30;61204;49.980;8.358;2022-08-21T02:38:14;15.67;73.76
72277;SHT30;61204;49.980;8.358;2022-08-21T02:40:45;15.62;73.75
72277;SHT30;61204;49.980;8.358;2022-08-21T02:43:14;15.62;74.10
72277;SHT30;61204;49.980;8.358;2022-08-21T02:45:42;15.56;74.13
72277;SHT30;61204;49.980;8.358;2022-08-21T02:48:13;15.56;74.65
72277;SHT30;61204;49.980;8.358;2022-08-21T02:50:45;15.49;74.57
72277;SHT30;61204;49.980;8.358;2022-08-21T02:53:15;15.44;74.94
72277;SHT30;61204;49.980;8.358;2022-08-21T02:55:47;15.42;75.25
72277;SHT30;61204;49.980;8.358;2022-08-21T02:58:19;15.37;75.76
72277;SHT30;61204;49.980;8.358;2022-08-21T03:00:50;15.32;75.83
72277;SHT30;61204;49.980;8.358;2022-08-21T03:03:17;15.27;75.82
72277;SHT30;61204;49.980;8.358;2022-08-21T03:05:44;15.27;75.95
72277;SHT30;61204;49.980;8.358;2022-08-21T03:08:12;15.21;76.02
72277;SHT30;61204;49.980;8.358;2022-08-21T03:10:44;15.23;76.34
72277;SHT30;61204;49.980;8.358;2022-08-21T03:13:15;15.23;76.14
72277;SHT30;61204;49.980;8.358;2022-08-21T03:15:43;15.17;76.20
72277;SHT30;61204;49.980;8.358;2022-08-21T03:18:11;15.20;76.40
72277;SHT30;61204;49.980;8.358;2022-08-21T03:20:41;15.16;76.63
72277;SHT30;61204;49.980;8.358;2022-08-21T03:23:09;15.30;76.80
72277;SHT30;61204;49.980;8.358;2022-08-21T03:25:35;15.27;76.47
72277;SHT30;61204;49.980;8.358;2022-08-21T03:28:04;15.26;77.04
72277;SHT30;61204;49.980;8.358;2022-08-21T03:30:31;15.39;76.68
72277;SHT30;61204;49.980;8.358;2022-08-21T03:32:58;15.39;76.49
72277;SHT30;61204;49.980;8.358;2022-08-21T03:35:26;15.38;76.62
72277;SHT30;61204;49.980;8.358;2022-08-21T03:37:52;15.31;76.57
72277;SHT30;61204;49.980;8.358;2022-08-21T03:40:22;15.27;77.04
72277;SHT30;61204;49.980;8.358;2022-08-21T03:42:49;15.17;77.14
72277;SHT30;61204;49.980;8.358;2022-08-21T03:45:17;15.07;77.73
72277;SHT30;61204;49.980;8.358;2022-08-21T03:48:00;15.00;77.93
72277;SHT30;61204;49.980;8.358;2022-08-21T03:50:34;14.93;78.21
72277;SHT30;61204;49.980;8.358;2022-08-21T03:53:04;14.89;78.57
72277;SHT30;61204;49.980;8.358;2022-08-21T03:55:31;14.83;78.61
72277;SHT30;61204;49.980;8.358;2022-08-21T03:57:57;14.75;78.75
72277;SHT30;61204;49.980;8.358;2022-08-21T04:00:24;14.71;79.02
72277;SHT30;61204;49.980;8.358;2022-08-21T04:02:50;14.75;79.32
72277;SHT30;61204;49.980;8.358;2022-08-21T04:05:17;14.71;79.40
72277;SHT30;61204;49.980;8.358;2022-08-21T04:07:54;14.68;79.67
72277;SHT30;61204;49.980;8.358;2022-08-21T04:10:27;14.63;79.86
72277;SHT30;61204;49.980;8.358;2022-08-21T04:12:55;14.59;79.96
72277;SHT30;61204;49.980;8.358;2022-08-21T04:15:22;14.61;80.17
72277;SHT30;61204;49.980;8.358;2022-08-21T04:17:49;14.62;80.33
72277;SHT30;61204;49.980;8.358;2022-08-21T04:20:17;14.58;80.09
72277;SHT30;61204;49.980;8.358;2022-08-21T04:22:44;14.56;80.11
72277;SHT30;61204;49.980;8.358;2022-08-21T04:25:13;14.46;80.11
72277;SHT30;61204;49.980;8.358;2022-08-21T04:27:39;14.44;80.22
72277;SHT30;61204;49.980;8.358;2022-08-21T04:30:07;14.45;80.61
72277;SHT30;61204;49.980;8.358;2022-08-21T04:32:38;14.44;80.26
72277;SHT30;61204;49.980;8.358;2022-08-21T04:35:10;14.45;80.30
72277;SHT30;61204;49.980;8.358;2022-08-21T04:37:36;14.45;80.45
72277;SHT30;61204;49.980;8.358;2022-08-21T04:40:04;14.46;80.12
72277;SHT30;61204;49.980;8.358;2022-08-21T04:42:32;14.48;79.98
72277;SHT30;61204;49.980;8.358;2022-08-21T04:44:58;14.58;79.73
72277;SHT30;61204;49.980;8.358;2022-08-21T04:47:24;14.69;79.31
72277;SHT30;61204;49.980;8.358;2022-08-21T04:49:50;14.80;78.85
72277;SHT30;61204;49.980;8.358;2022-08-21T04:52:21;14.96;78.30
72277;SHT30;61204;49.980;8.358;2022-08-21T04:54:50;15.11;77.91
72277;SHT30;61204;49.980;8.358;2022-08-21T04:57:17;15.26;77.47
72277;SHT30;61204;49.980;8.358;2022-08-21T04:59:50;15.44;76.65
72277;SHT30;61204;49.980;8.358;2022-08-21T05:02:17;15.63;75.99
72277;SHT30;61204;49.980;8.358;2022-08-21T05:04:51;15.76;75.00
72277;SHT30;61204;49.980;8.358;2022-08-21T05:07:24;15.96;74.36
72277;SHT30;61204;49.980;8.358;2022-08-21T05:09:53;16.17;73.72
72277;SHT30;61204;49.980;8.358;2022-08-21T05:12:20;16.37;73.30
72277;SHT30;61204;49.980;8.358;2022-08-21T05:14:47;16.56;72.66
72277;SHT30;61204;49.980;8.358;2022-08-21T05:17:14;16.79;71.69
72277;SHT30;61204;49.980;8.358;2022-08-21T05:19:40;17.07;70.58
72277;SHT30;61204;49.980;8.358;2022-08-21T05:22:05;17.24;70.07
72277;SHT30;61204;49.980;8.358;2022-08-21T05:24:32;17.46;69.30
72277;SHT30;61204;49.980;8.358;2022-08-21T05:26:59;17.62;68.91
72277;SHT30;61204;49.980;8.358;2022-08-21T05:29:25;17.86;67.90
72277;SHT30;61204;49.980;8.358;2022-08-21T05:31:51;18.00;67.56
72277;SHT30;61204;49.980;8.358;2022-08-21T05:34:23;18.25;66.46
72277;SHT30;61204;49.980;8.358;2022-08-21T05:36:50;18.33;66.12
72277;SHT30;61204;49.980;8.358;2022-08-21T05:39:16;18.38;65.95
72277;SHT30;61204;49.980;8.358;2022-08-21T05:41:42;18.48;66.18
72277;SHT30;61204;49.980;8.358;2022-08-21T05:44:07;18.62;65.65
72277;SHT30;61204;49.980;8.358;2022-08-21T05:46:33;18.85;64.90
72277;SHT30;61204;49.980;8.358;2022-08-21T05:48:59;19.07;64.71
72277;SHT30;61204;49.980;8.358;2022-08-21T05:51:24;19.34;63.42
72277;SHT30;61204;49.980;8.358;2022-08-21T05:53:50;19.52;62.34
72277;SHT30;61204;49.980;8.358;2022-08-21T05:56:16;19.66;62.20
72277;SHT30;61204;49.980;8.358;2022-08-21T05:58:42;19.96;61.06
72277;SHT30;61204;49.980;8.358;2022-08-21T06:01:08;20.06;60.48
72277;SHT30;61204;49.980;8.358;2022-08-21T06:03:38;19.90;60.59
72277;SHT30;61204;49.980;8.358;2022-08-21T06:06:06;19.96;60.37
72277;SHT30;61204;49.980;8.358;2022-08-21T06:08:33;20.10;59.73
72277;SHT30;61204;49.980;8.358;2022-08-21T06:11:06;20.28;58.99
72277;SHT30;61204;49.980;8.358;2022-08-21T06:13:33;20.47;58.91
72277;SHT30;61204;49.980;8.358;2022-08-21T06:16:11;20.56;58.21
72277;SHT30;61204;49.980;8.358;2022-08-21T06:18:40;20.64;57.68
72277;SHT30;61204;49.980;8.358;2022-08-21T06:21:07;20.56;57.97
72277;SHT30;61204;49.980;8.358;2022-08-21T06:23:34;20.89;57.24
72277;SHT30;61204;49.980;8.358;2022-08-21T06:26:02;21.11;56.53
72277;SHT30;61204;49.980;8.358;2022-08-21T06:28:30;21.65;55.03
72277;SHT30;61204;49.980;8.358;2022-08-21T06:30:57;21.93;53.50
72277;SHT30;61204;49.980;8.358;2022-08-21T06:33:23;21.90;54.68
72277;SHT30;61204;49.980;8.358;2022-08-21T06:35:49;22.21;53.35
72277;SHT30;61204;49.980;8.358;2022-08-21T06:38:15;22.30;53.22
72277;SHT30;61204;49.980;8.358;2022-08-21T06:40:43;22.49;52.98
72277;SHT30;61204;49.980;8.358;2022-08-21T06:43:14;22.81;52.20
72277;SHT30;61204;49.980;8.358;2022-08-21T06:45:42;22.89;51.54
72277;SHT30;61204;49.980;8.358;2022-08-21T06:48:08;22.84;51.34
72277;SHT30;61204;49.980;8.358;2022-08-21T06:50:35;22.72;51.57
72277;SHT30;61204;49.980;8.358;2022-08-21T06:53:12;22.99;51.77
72277;SHT30;61204;49.980;8.358;2022-08-21T06:55:40;23.30;50.93
72277;SHT30;61204;49.980;8.358;2022-08-21T06:58:08;23.44;50.46
72277;SHT30;61204;49.980;8.358;2022-08-21T07:00:38;23.48;50.14
72277;SHT30;61204;49.980;8.358;2022-08-21T07:03:06;23.69;49.69
72277;SHT30;61204;49.980;8.358;2022-08-21T07:05:32;23.44;50.23
72277;SHT30;61204;49.980;8.358;2022-08-21T07:07:58;23.85;50.35
72277;SHT30;61204;49.980;8.358;2022-08-21T07:10:26;24.30;48.92
72277;SHT30;61204;49.980;8.358;2022-08-21T07:12:53;24.64;48.75
72277;SHT30;61204;49.980;8.358;2022-08-21T07:15:20;25.22;47.80
72277;SHT30;61204;49.980;8.358;2022-08-21T07:17:46;25.68;46.55
72277;SHT30;61204;49.980;8.358;2022-08-21T07:20:11;25.91;46.34
72277;SHT30;61204;49.980;8.358;2022-08-21T07:22:39;26.03;45.53
72277;SHT30;61204;49.980;8.358;2022-08-21T07:25:07;26.15;46.06
72277;SHT30;61204;49.980;8.358;2022-08-21T07:27:33;26.06;46.00
72277;SHT30;61204;49.980;8.358;2022-08-21T07:29:59;26.36;45.13
72277;SHT30;61204;49.980;8.358;2022-08-21T07:32:25;26.29;45.91
72277;SHT30;61204;49.980;8.358;2022-08-21T07:34:51;26.80;44.94
72277;SHT30;61204;49.980;8.358;2022-08-21T07:37:17;26.89;44.38
72277;SHT30;61204;49.980;8.358;2022-08-21T07:39:44;26.70;45.01
72277;SHT30;61204;49.980;8.358;2022-08-21T07:42:13;27.03;44.47
72277;SHT30;61204;49.980;8.358;2022-08-21T07:44:39;27.17;44.40
72277;SHT30;61204;49.980;8.358;2022-08-21T07:47:07;27.23;44.38
72277;SHT30;61204;49.980;8.358;2022-08-21T07:49:33;27.44;43.62
72277;SHT30;61204;49.980;8.358;2022-08-21T07:51:59;27.55;43.60
72277;SHT30;61204;49.980;8.358;2022-08-21T07:54:25;27.82;42.77
72277;SHT30;61204;49.980;8.358;2022-08-21T07:56:51;27.77;43.35
72277;SHT30;61204;49.980;8.358;2022-08-21T07:59:17;27.37;44.13
72277;SHT30;61204;49.980;8.358;2022-08-21T08:01:43;27.34;43.79
72277;SHT30;61204;49.980;8.358;2022-08-21T08:04:08;27.23;44.40
72277;SHT30;61204;49.980;8.358;2022-08-21T08:06:34;27.82;43.25
72277;SHT30;61204;49.980;8.358;2022-08-21T08:09:00;27.80;43.81
72277;SHT30;61204;49.980;8.358;2022-08-21T08:11:29;28.23;42.42
72277;SHT30;61204;49.980;8.358;2022-08-21T08:13:55;28.39;42.55
72277;SHT30;61204;49.980;8.358;2022-08-21T08:16:23;29.56;40.57
72277;SHT30;61204;49.980;8.358;2022-08-21T08:18:49;29.89;40.17
72277;SHT30;61204;49.980;8.358;2022-08-21T08:21:17;30.09;40.04
72277;SHT30;61204;49.980;8.358;2022-08-21T08:23:46;30.32;39.56
72277;SHT30;61204;49.980;8.358;2022-08-21T08:26:12;30.43;39.59
72277;SHT30;61204;49.980;8.358;2022-08-21T08:28:47;30.66;39.05
72277;SHT30;61204;49.980;8.358;2022-08-21T08:31:13;30.78;39.42
72277;SHT30;61204;49.980;8.358;2022-08-21T08:33:40;29.92;40.69
72277;SHT30;61204;49.980;8.358;2022-08-21T08:36:15;30.12;40.47
72277;SHT30;61204;49.980;8.358;2022-08-21T08:38:47;29.78;41.57
72277;SHT30;61204;49.980;8.358;2022-08-21T08:41:17;29.57;41.65
72277;SHT30;61204;49.980;8.358;2022-08-21T08:43:54;29.71;41.27
72277;SHT30;61204;49.980;8.358;2022-08-21T08:46:44;30.36;40.32
72277;SHT30;61204;49.980;8.358;2022-08-21T08:49:30;31.15;39.08
72277;SHT30;61204;49.980;8.358;2022-08-21T08:52:43;31.26;39.28
72277;SHT30;61204;49.980;8.358;2022-08-21T08:55:58;31.23;39.76
72277;SHT30;61204;49.980;8.358;2022-08-21T08:58:29;31.88;38.62
72277;SHT30;61204;49.980;8.358;2022-08-21T09:00:57;31.76;39.05
72277;SHT30;61204;49.980;8.358;2022-08-21T09:03:26;31.02;39.75
72277;SHT30;61204;49.980;8.358;2022-08-21T09:06:23;30.46;40.84
72277;SHT30;61204;49.980;8.358;2022-08-21T09:15:33;31.25;38.07
72277;SHT30;61204;49.980;8.358;2022-08-21T09:18:20;32.45;36.78
72277;SHT30;61204;49.980;8.358;2022-08-21T18:59:05;24.38;38.74
72277;SHT30;61204;49.980;8.358;2022-08-21T19:01:31;24.26;39.05
72277;SHT30;61204;49.980;8.358;2022-08-21T19:03:58;24.21;38.71
72277;SHT30;61204;49.980;8.358;2022-08-21T19:06:24;24.12;38.87
72277;SHT30;61204;49.980;8.358;2022-08-21T19:08:49;24.00;39.11
72277;SHT30;61204;49.980;8.358;2022-08-21T19:11:16;23.92;39.22
72277;SHT30;61204;49.980;8.358;2022-08-21T19:13:42;23.88;39.71
72277;SHT30;61204;49.980;8.358;2022-08-21T19:16:08;23.81;39.90
72277;SHT30;61204;49.980;8.358;2022-08-21T19:18:39;23.72;40.24
72277;SHT30;61204;49.980;8.358;2022-08-21T19:21:06;23.62;40.08
72277;SHT30;61204;49.980;8.358;2022-08-21T19:23:32;23.53;40.40
72277;SHT30;61204;49.980;8.358;2022-08-21T19:26:01;23.43;40.42
72277;SHT30;61204;49.980;8.358;2022-08-21T19:28:36;23.33;40.87
72277;SHT30;61204;49.980;8.358;2022-08-21T19:31:19;23.24;41.38
72277;SHT30;61204;49.980;8.358;2022-08-21T19:34:02;23.12;41.28
72277;SHT30;61204;49.980;8.358;2022-08-21T19:36:32;23.04;41.52
72277;SHT30;61204;49.980;8.358;2022-08-21T19:39:00;22.99;44.12
72277;SHT30;61204;49.980;8.358;2022-08-21T19:41:30;22.88;42.45
72277;SHT30;61204;49.980;8.358;2022-08-21T19:44:04;22.85;41.82
72277;SHT30;61204;49.980;8.358;2022-08-21T19:46:36;22.91;41.48
72277;SHT30;61204;49.980;8.358;2022-08-21T19:49:06;23.03;41.36
72277;SHT30;61204;49.980;8.358;2022-08-21T19:51:38;22.96;41.24
72277;SHT30;61204;49.980;8.358;2022-08-21T19:54:04;22.89;41.32
72277;SHT30;61204;49.980;8.358;2022-08-21T19:56:32;22.86;41.63
72277;SHT30;61204;49.980;8.358;2022-08-21T19:58:59;22.75;41.81
72277;SHT30;61204;49.980;8.358;2022-08-21T20:01:26;22.69;42.08
72277;SHT30;61204;49.980;8.358;2022-08-21T20:03:54;22.65;42.35
72277;SHT30;61204;49.980;8.358;2022-08-21T20:06:22;22.57;42.48
72277;SHT30;61204;49.980;8.358;2022-08-21T20:08:49;22.58;42.58
72277;SHT30;61204;49.980;8.358;2022-08-21T20:11:25;22.47;42.91
72277;SHT30;61204;49.980;8.358;2022-08-21T20:13:54;22.47;42.43
72277;SHT30;61204;49.980;8.358;2022-08-21T20:16:22;22.33;42.83
72277;SHT30;61204;49.980;8.358;2022-08-21T20:18:48;22.25;42.99
72277;SHT30;61204;49.980;8.358;2022-08-21T20:21:15;22.17;43.27
72277;SHT30;61204;49.980;8.358;2022-08-21T20:23:41;22.07;43.61
72277;SHT30;61204;49.980;8.358;2022-08-21T20:26:07;21.97;43.80
72277;SHT30;61204;49.980;8.358;2022-08-21T20:28:34;21.86;44.03
72277;SHT30;61204;49.980;8.358;2022-08-21T20:31:01;21.75;44.23
72277;SHT30;61204;49.980;8.358;2022-08-21T20:33:27;21.66;44.43
72277;SHT30;61204;49.980;8.358;2022-08-21T20:35:53;21.59;44.74
72277;SHT30;61204;49.980;8.358;2022-08-21T20:38:20;21.52;45.19
72277;SHT30;61204;49.980;8.358;2022-08-21T20:40:50;21.44;45.54
72277;SHT30;61204;49.980;8.358;2022-08-21T20:43:20;21.37;45.68
72277;SHT30;61204;49.980;8.358;2022-08-21T20:45:48;21.30;45.90
72277;SHT30;61204;49.980;8.358;2022-08-21T20:48:27;21.20;46.08
72277;SHT30;61204;49.980;8.358;2022-08-21T20:51:05;21.10;46.96
72277;SHT30;61204;49.980;8.358;2022-08-21T20:57:31;20.80;48.94
72277;SHT30;61204;49.980;8.358;2022-08-21T21:00:17;20.72;49.32
72277;SHT30;61204;49.980;8.358;2022-08-21T21:05:26;20.73;48.73
72277;SHT30;61204;49.980;8.358;2022-08-21T21:08:12;20.76;48.59
72277;SHT30;61204;49.980;8.358;2022-08-21T21:11:02;20.67;48.78
72277;SHT30;61204;49.980;8.358;2022-08-21T21:13:46;20.61;48.93
72277;SHT30;61204;49.980;8.358;2022-08-21T21:18:54;20.49;49.28
72277;SHT30;61204;49.980;8.358;2022-08-21T21:21:32;20.51;49.34
72277;SHT30;61204;49.980;8.358;2022-08-21T21:24:13;20.45;49.33
72277;SHT30;61204;49.980;8.358;2022-08-21T21:27:27;20.38;49.54
72277;SHT30;61204;49.980;8.358;2022-08-21T21:30:21;20.31;49.74
72277;SHT30;61204;49.980;8.358;2022-08-21T21:32:53;20.31;49.88
72277;SHT30;61204;49.980;8.358;2022-08-21T21:35:24;20.28;49.97
72277;SHT30;61204;49.980;8.358;2022-08-21T21:38:07;20.25;49.75
72277;SHT30;61204;49.980;8.358;2022-08-21T21:41:05;20.33;49.69
72277;SHT30;61204;49.980;8.358;2022-08-21T21:47:11;20.41;50.01
72277;SHT30;61204;49.980;8.358;2022-08-21T21:56:23;20.35;49.66
72277;SHT30;61204;49.980;8.358;2022-08-21T22:07:53;20.37;49.56
72277;SHT30;61204;49.980;8.358;2022-08-21T22:10:51;20.33;50.19
72277;SHT30;61204;49.980;8.358;2022-08-21T22:13:52;20.37;49.95
72277;SHT30;61204;49.980;8.358;2022-08-21T22:16:27;20.37;50.24
72277;SHT30;61204;49.980;8.358;2022-08-21T22:19:01;20.30;50.22
72277;SHT30;61204;49.980;8.358;2022-08-21T22:21:43;20.38;50.32
72277;SHT30;61204;49.980;8.358;2022-08-21T22:24:34;20.28;50.45
72277;SHT30;61204;49.980;8.358;2022-08-21T22:27:30;20.23;50.43
72277;SHT30;61204;49.980;8.358;2022-08-21T22:30:05;20.14;50.92
72277;SHT30;61204;49.980;8.358;2022-08-21T22:32:40;20.07;51.06
72277;SHT30;61204;49.980;8.358;2022-08-21T22:35:23;20.03;51.59
72277;SHT30;61204;49.980;8.358;2022-08-21T22:37:57;19.94;51.80
72277;SHT30;61204;49.980;8.358;2022-08-21T22:40:28;19.98;52.02
72277;SHT30;61204;49.980;8.358;2022-08-21T22:43:09;19.96;51.68
72277;SHT30;61204;49.980;8.358;2022-08-21T22:46:03;19.92;51.97
72277;SHT30;61204;49.980;8.358;2022-08-21T22:48:40;19.98;51.98
72277;SHT30;61204;49.980;8.358;2022-08-21T22:51:34;19.96;52.09
72277;SHT30;61204;49.980;8.358;2022-08-21T22:54:05;19.92;52.24
72277;SHT30;61204;49.980;8.358;2022-08-21T22:56:40;19.90;52.57
72277;SHT30;61204;49.980;8.358;2022-08-21T22:59:51;19.86;52.64
72277;SHT30;61204;49.980;8.358;2022-08-21T23:02:40;19.86;52.87
72277;SHT30;61204;49.980;8.358;2022-08-21T23:07:58;19.82;53.17
72277;SHT30;61204;49.980;8.358;2022-08-21T23:10:46;19.79;53.11
72277;SHT30;61204;49.980;8.358;2022-08-21T23:13:16;19.85;53.05
72277;SHT30;61204;49.980;8.358;2022-08-21T23:16:12;19.72;53.16
72277;SHT30;61204;49.980;8.358;2022-08-21T23:19:17;19.63;53.18
72277;SHT30;61204;49.980;8.358;2022-08-21T23:32:02;19.47;53.89
72277;SHT30;61204;49.980;8.358;2022-08-21T23:35:05;19.45;54.47
72277;SHT30;61204;49.980;8.358;2022-08-21T23:38:08;19.47;54.50
72277;SHT30;61204;49.980;8.358;2022-08-21T23:41:00;19.58;54.26
72277;SHT30;61204;49.980;8.358;2022-08-21T23:59:02;19.62;54.17
